sensor_id;sensor_type;location;lat;lon;timestamp;temperature;humidity
32506;DHT22;18955;51.224;8.482;2022-12-18T00:00:48;3.00;50.60
32506;DHT22;18955;51.224;8.482;2022-12-18T00:03:15;3.10;50.70
32506;DHT22;18955;51.224;8.482;2022-12-18T00:05:51;3.20;50.10
32506;DHT22;18955;51.224;8.482;2022-12-18T00:08:18;3.00;50.50
32506;DHT22;18955;51.224;8.482;2022-12-18T00:10:45;3.10;50.50
32506;DHT22;18955;51.224;8.482;2022-12-18T00:13:11;3.10;50.40
32506;DHT22;18955;51.224;8.482;2022-12-18T00:15:39;2.90;51.30
32506;DHT22;18955;51.224;8.482;2022-12-18T00:18:05;3.10;50.40
32506;DHT22;18955;51.224;8.482;2022-12-18T00:20:36;3.00;50.60
32506;DHT22;18955;51.224;8.482;2022-12-18T00:23:02;3.00;50.90
32506;DHT22;18955;51.224;8.482;2022-12-18T00:25:29;3.20;50.30
32506;DHT22;18955;51.224;8.482;2022-12-18T00:27:55;2.90;50.70
32506;DHT22;18955;51.224;8.482;2022-12-18T00:30:21;3.10;50.70
32506;DHT22;18955;51.224;8.482;2022-12-18T00:32:47;3.20;50.20
32506;DHT22;18955;51.224;8.482;2022-12-18T00:35:13;2.90;50.70
32506;DHT22;18955;51.224;8.482;2022-12-18T00:37:40;3.10;50.50
32506;DHT22;18955;51.224;8.482;2022-12-18T00:40:06;3.00;50.60
32506;DHT22;18955;51.224;8.482;2022-12-18T00:42:33;2.90;51.00
32506;DHT22;18955;51.224;8.482;2022-12-18T00:45:18;3.10;50.40
32506;DHT22;18955;51.224;8.482;2022-12-18T00:47:44;2.90;50.80
32506;DHT22;18955;51.224;8.482;2022-12-18T00:50:10;3.00;50.70
32506;DHT22;18955;51.224;8.482;2022-12-18T00:52:37;3.20;50.20
32506;DHT22;18955;51.224;8.482;2022-12-18T00:55:03;2.90;50.60
32506;DHT22;18955;51.224;8.482;2022-12-18T00:57:30;3.10;50.50
32506;DHT22;18955;51.224;8.482;2022-12-18T00:59:56;3.10;50.40
32506;DHT22;18955;51.224;8.482;2022-12-18T01:02:22;2.90;51.00
32506;DHT22;18955;51.224;8.482;2022-12-18T01:04:49;3.20;50.30
32506;DHT22;18955;51.224;8.482;2022-12-18T01:07:19;3.10;50.40
32506;DHT22;18955;51.224;8.482;2022-12-18T01:09:45;2.90;50.80
32506;DHT22;18955;51.224;8.482;2022-12-18T01:12:11;3.20;50.20
32506;DHT22;18955;51.224;8.482;2022-12-18T01:14:37;3.00;50.70
32506;DHT22;18955;51.224;8.482;2022-12-18T01:17:04;2.90;50.70
32506;DHT22;18955;51.224;8.482;2022-12-18T01:19:32;3.20;50.20
32506;DHT22;18955;51.224;8.482;2022-12-18T01:21:59;2.90;50.60
32506;DHT22;18955;51.224;8.482;2022-12-18T01:24:25;3.00;50.70
32506;DHT22;18955;51.224;8.482;2022-12-18T01:26:51;3.10;50.30
32506;DHT22;18955;51.224;8.482;2022-12-18T01:29:17;2.80;50.70
32506;DHT22;18955;51.224;8.482;2022-12-18T01:31:44;3.00;50.60
32506;DHT22;18955;51.224;8.482;2022-12-18T01:34:10;3.00;50.50
32506;DHT22;18955;51.224;8.482;2022-12-18T01:36:37;2.80;50.90
32506;DHT22;18955;51.224;8.482;2022-12-18T01:39:07;3.10;50.40
32506;DHT22;18955;51.224;8.482;2022-12-18T01:41:34;3.00;50.50
32506;DHT22;18955;51.224;8.482;2022-12-18T01:49:49;2.90;50.60
32506;DHT22;18955;51.224;8.482;2022-12-18T01:52:17;3.00;50.40
32506;DHT22;18955;51.224;8.482;2022-12-18T01:54:44;3.10;50.20
32506;DHT22;18955;51.224;8.482;2022-12-18T01:57:11;2.90;50.90
32506;DHT22;18955;51.224;8.482;2022-12-18T01:59:38;3.10;50.50
32506;DHT22;18955;51.224;8.482;2022-12-18T02:02:07;3.00;50.60
32506;DHT22;18955;51.224;8.482;2022-12-18T02:04:34;2.90;51.10
32506;DHT22;18955;51.224;8.482;2022-12-18T02:09:50;2.90;50.80
32506;DHT22;18955;51.224;8.482;2022-12-18T02:12:25;3.00;50.80
32506;DHT22;18955;51.224;8.482;2022-12-18T02:20:18;3.10;50.40
32506;DHT22;18955;51.224;8.482;2022-12-18T02:28:34;3.00;51.10
32506;DHT22;18955;51.224;8.482;2022-12-18T02:31:08;2.80;51.10
32506;DHT22;18955;51.224;8.482;2022-12-18T02:33:36;3.10;50.50
32506;DHT22;18955;51.224;8.482;2022-12-18T02:36:04;3.00;50.80
32506;DHT22;18955;51.224;8.482;2022-12-18T02:38:33;2.90;51.00
32506;DHT22;18955;51.224;8.482;2022-12-18T02:41:07;3.10;50.40
32506;DHT22;18955;51.224;8.482;2022-12-18T02:43:35;2.80;50.90
32506;DHT22;18955;51.224;8.482;2022-12-18T02:48:53;3.10;50.50
32506;DHT22;18955;51.224;8.482;2022-12-18T02:51:30;2.90;51.10
32506;DHT22;18955;51.224;8.482;2022-12-18T02:54:06;3.10;50.40
32506;DHT22;18955;51.224;8.482;2022-12-18T02:56:51;2.90;50.80
32506;DHT22;18955;51.224;8.482;2022-12-18T02:59:30;3.00;51.00
32506;DHT22;18955;51.224;8.482;2022-12-18T03:02:08;3.10;50.50
32506;DHT22;18955;51.224;8.482;2022-12-18T03:07:21;3.10;51.20
32506;DHT22;18955;51.224;8.482;2022-12-18T03:09:54;2.90;50.90
32506;DHT22;18955;51.224;8.482;2022-12-18T03:12:36;2.90;51.10
32506;DHT22;18955;51.224;8.482;2022-12-18T03:17:48;2.80;51.10
32506;DHT22;18955;51.224;8.482;2022-12-18T03:20:19;3.10;50.90
32506;DHT22;18955;51.224;8.482;2022-12-18T03:22:51;3.00;50.90
32506;DHT22;18955;51.224;8.482;2022-12-18T03:25:19;2.90;51.40
32506;DHT22;18955;51.224;8.482;2022-12-18T03:27:49;3.20;50.80
32506;DHT22;18955;51.224;8.482;2022-12-18T03:30:17;2.90;51.00
32506;DHT22;18955;51.224;8.482;2022-12-18T03:33:05;2.90;51.30
32506;DHT22;18955;51.224;8.482;2022-12-18T03:35:36;3.10;50.70
32506;DHT22;18955;51.224;8.482;2022-12-18T03:38:04;2.80;51.30
32506;DHT22;18955;51.224;8.482;2022-12-18T03:45:55;2.90;51.60
32506;DHT22;18955;51.224;8.482;2022-12-18T03:48:31;3.20;50.90
32506;DHT22;18955;51.224;8.482;2022-12-18T03:51:17;2.90;51.20
32506;DHT22;18955;51.224;8.482;2022-12-18T03:54:01;3.00;51.50
32506;DHT22;18955;51.224;8.482;2022-12-18T03:56:34;3.10;50.90
32506;DHT22;18955;51.224;8.482;2022-12-18T03:59:03;2.90;51.60
32506;DHT22;18955;51.224;8.482;2022-12-18T04:01:34;3.10;51.40
32506;DHT22;18955;51.224;8.482;2022-12-18T04:04:02;3.00;51.20
32506;DHT22;18955;51.224;8.482;2022-12-18T04:06:35;2.90;51.80
32506;DHT22;18955;51.224;8.482;2022-12-18T04:09:02;3.10;51.20
32506;DHT22;18955;51.224;8.482;2022-12-18T04:11:30;3.00;51.50
32506;DHT22;18955;51.224;8.482;2022-12-18T04:13:57;3.00;51.90
32506;DHT22;18955;51.224;8.482;2022-12-18T04:16:27;3.10;51.10
32506;DHT22;18955;51.224;8.482;2022-12-18T04:18:56;2.90;51.70
32506;DHT22;18955;51.224;8.482;2022-12-18T04:21:24;3.10;51.70
32506;DHT22;18955;51.224;8.482;2022-12-18T04:23:52;3.10;51.10
32506;DHT22;18955;51.224;8.482;2022-12-18T04:26:20;2.90;51.80
32506;DHT22;18955;51.224;8.482;2022-12-18T04:28:57;3.10;51.70
32506;DHT22;18955;51.224;8.482;2022-12-18T04:31:24;3.10;51.20
32506;DHT22;18955;51.224;8.482;2022-12-18T04:33:51;2.90;51.90
32506;DHT22;18955;51.224;8.482;2022-12-18T04:36:17;3.10;51.50
32506;DHT22;18955;51.224;8.482;2022-12-18T04:38:44;3.10;51.50
32506;DHT22;18955;51.224;8.482;2022-12-18T04:41:14;2.90;52.10
32506;DHT22;18955;51.224;8.482;2022-12-18T04:43:42;3.20;51.30
32506;DHT22;18955;51.224;8.482;2022-12-18T04:46:08;3.00;51.60
32506;DHT22;18955;51.224;8.482;2022-12-18T04:48:35;2.90;52.10
32506;DHT22;18955;51.224;8.482;2022-12-18T04:51:02;3.20;51.40
32506;DHT22;18955;51.224;8.482;2022-12-18T04:53:29;2.90;51.90
32506;DHT22;18955;51.224;8.482;2022-12-18T04:56:13;2.90;52.00
32506;DHT22;18955;51.224;8.482;2022-12-18T04:58:41;3.20;51.30
32506;DHT22;18955;51.224;8.482;2022-12-18T05:01:08;2.90;52.00
32506;DHT22;18955;51.224;8.482;2022-12-18T05:03:35;3.10;51.90
32506;DHT22;18955;51.224;8.482;2022-12-18T05:06:02;3.20;51.30
32506;DHT22;18955;51.224;8.482;2022-12-18T05:08:28;2.90;52.00
32506;DHT22;18955;51.224;8.482;2022-12-18T05:11:03;3.10;51.80
32506;DHT22;18955;51.224;8.482;2022-12-18T05:13:30;3.10;51.60
32506;DHT22;18955;51.224;8.482;2022-12-18T05:15:56;2.90;52.30
32506;DHT22;18955;51.224;8.482;2022-12-18T05:18:23;3.10;51.80
32506;DHT22;18955;51.224;8.482;2022-12-18T05:20:50;3.00;51.90
32506;DHT22;18955;51.224;8.482;2022-12-18T05:23:17;3.00;52.30
32506;DHT22;18955;51.224;8.482;2022-12-18T05:26:08;3.20;51.60
32506;DHT22;18955;51.224;8.482;2022-12-18T05:28:35;3.10;52.00
32506;DHT22;18955;51.224;8.482;2022-12-18T05:31:03;3.00;52.20
32506;DHT22;18955;51.224;8.482;2022-12-18T05:33:31;3.20;51.50
32506;DHT22;18955;51.224;8.482;2022-12-18T05:36:00;2.90;52.10
32506;DHT22;18955;51.224;8.482;2022-12-18T05:38:27;3.10;52.10
32506;DHT22;18955;51.224;8.482;2022-12-18T05:40:55;3.10;51.60
32506;DHT22;18955;51.224;8.482;2022-12-18T05:43:22;2.90;52.20
32506;DHT22;18955;51.224;8.482;2022-12-18T05:45:49;3.20;51.90
32506;DHT22;18955;51.224;8.482;2022-12-18T05:48:16;3.10;51.90
32506;DHT22;18955;51.224;8.482;2022-12-18T05:50:43;2.90;52.40
32506;DHT22;18955;51.224;8.482;2022-12-18T05:53:12;3.20;51.80
32506;DHT22;18955;51.224;8.482;2022-12-18T05:55:39;3.00;52.00
32506;DHT22;18955;51.224;8.482;2022-12-18T05:58:07;3.00;52.50
32506;DHT22;18955;51.224;8.482;2022-12-18T06:00:36;3.20;51.70
32506;DHT22;18955;51.224;8.482;2022-12-18T06:03:09;3.00;52.20
32506;DHT22;18955;51.224;8.482;2022-12-18T06:05:37;3.10;52.30
32506;DHT22;18955;51.224;8.482;2022-12-18T06:08:04;3.20;51.70
32506;DHT22;18955;51.224;8.482;2022-12-18T06:10:30;2.90;52.20
32506;DHT22;18955;51.224;8.482;2022-12-18T06:12:56;3.10;52.10
32506;DHT22;18955;51.224;8.482;2022-12-18T06:15:23;3.10;51.70
32506;DHT22;18955;51.224;8.482;2022-12-18T06:17:49;2.90;52.40
32506;DHT22;18955;51.224;8.482;2022-12-18T06:20:15;3.20;52.10
32506;DHT22;18955;51.224;8.482;2022-12-18T06:22:41;3.10;51.90
32506;DHT22;18955;51.224;8.482;2022-12-18T06:25:08;2.90;52.40
32506;DHT22;18955;51.224;8.482;2022-12-18T06:27:34;3.20;52.00
32506;DHT22;18955;51.224;8.482;2022-12-18T06:30:00;3.10;51.90
32506;DHT22;18955;51.224;8.482;2022-12-18T06:32:27;3.00;52.50
32506;DHT22;18955;51.224;8.482;2022-12-18T06:34:53;3.20;51.80
32506;DHT22;18955;51.224;8.482;2022-12-18T06:37:21;3.00;52.10
32506;DHT22;18955;51.224;8.482;2022-12-18T06:39:50;3.00;52.50
32506;DHT22;18955;51.224;8.482;2022-12-18T06:42:16;3.20;51.90
32506;DHT22;18955;51.224;8.482;2022-12-18T06:44:43;3.00;52.30
32506;DHT22;18955;51.224;8.482;2022-12-18T06:47:09;3.10;52.40
32506;DHT22;18955;51.224;8.482;2022-12-18T06:49:35;3.30;51.70
32506;DHT22;18955;51.224;8.482;2022-12-18T06:52:02;3.00;52.20
32506;DHT22;18955;51.224;8.482;2022-12-18T06:54:28;3.10;52.30
32506;DHT22;18955;51.224;8.482;2022-12-18T06:56:56;3.20;51.80
32506;DHT22;18955;51.224;8.482;2022-12-18T06:59:22;3.00;52.30
32506;DHT22;18955;51.224;8.482;2022-12-18T07:01:48;3.10;52.30
32506;DHT22;18955;51.224;8.482;2022-12-18T07:04:14;3.20;51.90
32506;DHT22;18955;51.224;8.482;2022-12-18T07:06:40;3.00;52.50
32506;DHT22;18955;51.224;8.482;2022-12-18T07:09:07;3.20;52.20
32506;DHT22;18955;51.224;8.482;2022-12-18T07:11:33;3.20;51.90
32506;DHT22;18955;51.224;8.482;2022-12-18T07:13:59;3.00;52.60
32506;DHT22;18955;51.224;8.482;2022-12-18T07:16:25;3.30;52.00
32506;DHT22;18955;51.224;8.482;2022-12-18T07:18:55;3.20;51.90
32506;DHT22;18955;51.224;8.482;2022-12-18T07:21:23;3.00;52.60
32506;DHT22;18955;51.224;8.482;2022-12-18T07:23:49;3.30;52.00
32506;DHT22;18955;51.224;8.482;2022-12-18T07:26:18;3.10;52.20
32506;DHT22;18955;51.224;8.482;2022-12-18T07:28:44;3.10;52.70
32506;DHT22;18955;51.224;8.482;2022-12-18T07:31:13;3.30;51.90
32506;DHT22;18955;51.224;8.482;2022-12-18T07:33:39;3.10;52.40
32506;DHT22;18955;51.224;8.482;2022-12-18T07:36:07;3.20;52.70
32506;DHT22;18955;51.224;8.482;2022-12-18T07:38:35;3.30;52.00
32506;DHT22;18955;51.224;8.482;2022-12-18T07:41:03;3.00;52.50
32506;DHT22;18955;51.224;8.482;2022-12-18T07:43:29;3.20;52.50
32506;DHT22;18955;51.224;8.482;2022-12-18T07:45:56;3.30;52.10
32506;DHT22;18955;51.224;8.482;2022-12-18T07:48:22;3.00;52.70
32506;DHT22;18955;51.224;8.482;2022-12-18T07:50:48;3.30;52.40
32506;DHT22;18955;51.224;8.482;2022-12-18T07:53:15;3.30;52.20
32506;DHT22;18955;51.224;8.482;2022-12-18T07:55:42;3.10;52.90
32506;DHT22;18955;51.224;8.482;2022-12-18T07:58:08;3.30;52.30
32506;DHT22;18955;51.224;8.482;2022-12-18T08:00:35;3.20;52.30
32506;DHT22;18955;51.224;8.482;2022-12-18T08:03:02;3.10;52.90
32506;DHT22;18955;51.224;8.482;2022-12-18T08:05:28;3.40;52.10
32506;DHT22;18955;51.224;8.482;2022-12-18T08:07:54;3.20;52.30
32506;DHT22;18955;51.224;8.482;2022-12-18T08:10:20;3.10;52.80
32506;DHT22;18955;51.224;8.482;2022-12-18T08:12:50;3.40;52.10
32506;DHT22;18955;51.224;8.482;2022-12-18T08:15:17;3.20;52.60
32506;DHT22;18955;51.224;8.482;2022-12-18T08:17:43;3.30;52.90
32506;DHT22;18955;51.224;8.482;2022-12-18T08:20:10;3.40;52.00
32506;DHT22;18955;51.224;8.482;2022-12-18T08:22:36;3.20;52.60
32506;DHT22;18955;51.224;8.482;2022-12-18T08:25:03;3.30;52.70
32506;DHT22;18955;51.224;8.482;2022-12-18T08:27:29;3.40;52.60
32506;DHT22;18955;51.224;8.482;2022-12-18T08:29:56;3.20;52.70
32506;DHT22;18955;51.224;8.482;2022-12-18T08:32:23;3.30;52.70
32506;DHT22;18955;51.224;8.482;2022-12-18T08:34:50;3.50;52.20
32506;DHT22;18955;51.224;8.482;2022-12-18T08:37:16;3.20;52.80
32506;DHT22;18955;51.224;8.482;2022-12-18T08:39:42;3.40;52.70
32506;DHT22;18955;51.224;8.482;2022-12-18T08:42:08;3.40;52.20
32506;DHT22;18955;51.224;8.482;2022-12-18T08:44:53;3.20;52.90
32506;DHT22;18955;51.224;8.482;2022-12-18T08:47:19;3.50;52.60
32506;DHT22;18955;51.224;8.482;2022-12-18T08:49:45;3.40;52.60
32506;DHT22;18955;51.224;8.482;2022-12-18T08:52:12;3.30;53.20
32506;DHT22;18955;51.224;8.482;2022-12-18T08:54:38;3.60;52.60
32506;DHT22;18955;51.224;8.482;2022-12-18T08:57:04;3.50;52.60
32506;DHT22;18955;51.224;8.482;2022-12-18T08:59:30;3.30;53.20
32506;DHT22;18955;51.224;8.482;2022-12-18T09:01:56;3.60;52.50
32506;DHT22;18955;51.224;8.482;2022-12-18T09:04:23;3.50;52.50
32506;DHT22;18955;51.224;8.482;2022-12-18T09:06:49;3.30;53.20
32506;DHT22;18955;51.224;8.482;2022-12-18T09:09:15;3.60;52.70
32506;DHT22;18955;51.224;8.482;2022-12-18T09:11:41;3.50;52.80
32506;DHT22;18955;51.224;8.482;2022-12-18T09:14:09;3.40;53.50
32506;DHT22;18955;51.224;8.482;2022-12-18T09:16:36;3.60;52.80
32506;DHT22;18955;51.224;8.482;2022-12-18T09:19:03;3.40;53.20
32506;DHT22;18955;51.224;8.482;2022-12-18T09:21:33;3.50;53.60
32506;DHT22;18955;51.224;8.482;2022-12-18T09:23:59;3.70;52.80
32506;DHT22;18955;51.224;8.482;2022-12-18T09:26:26;3.40;53.30
32506;DHT22;18955;51.224;8.482;2022-12-18T09:28:52;3.50;53.50
32506;DHT22;18955;51.224;8.482;2022-12-18T09:31:22;3.70;52.90
32506;DHT22;18955;51.224;8.482;2022-12-18T09:33:48;3.40;53.60
32506;DHT22;18955;51.224;8.482;2022-12-18T09:36:16;3.60;53.50
32506;DHT22;18955;51.224;8.482;2022-12-18T09:38:43;3.80;52.90
32506;DHT22;18955;51.224;8.482;2022-12-18T09:41:44;3.50;53.50
32506;DHT22;18955;51.224;8.482;2022-12-18T09:44:34;3.70;53.50
32506;DHT22;18955;51.224;8.482;2022-12-18T09:47:18;3.80;53.10
32506;DHT22;18955;51.224;8.482;2022-12-18T09:49:48;3.60;53.90
32506;DHT22;18955;51.224;8.482;2022-12-18T09:52:33;3.90;53.30
32506;DHT22;18955;51.224;8.482;2022-12-18T09:55:22;3.70;53.70
32506;DHT22;18955;51.224;8.482;2022-12-18T09:57:53;3.80;53.70
32506;DHT22;18955;51.224;8.482;2022-12-18T10:00:22;3.90;53.10
32506;DHT22;18955;51.224;8.482;2022-12-18T10:02:51;3.70;53.90
32506;DHT22;18955;51.224;8.482;2022-12-18T10:13:56;4.00;53.50
32506;DHT22;18955;51.224;8.482;2022-12-18T10:16:36;3.80;54.00
32506;DHT22;18955;51.224;8.482;2022-12-18T10:19:39;3.90;54.20
32506;DHT22;18955;51.224;8.482;2022-12-18T10:22:25;4.00;53.40
32506;DHT22;18955;51.224;8.482;2022-12-18T10:27:31;4.00;53.60
32506;DHT22;18955;51.224;8.482;2022-12-18T10:29:58;3.90;53.70
32506;DHT22;18955;51.224;8.482;2022-12-18T10:32:29;3.80;54.30
32506;DHT22;18955;51.224;8.482;2022-12-18T10:34:57;4.00;53.60
32506;DHT22;18955;51.224;8.482;2022-12-18T10:37:26;3.90;54.00
32506;DHT22;18955;51.224;8.482;2022-12-18T10:40:15;3.80;54.20
32506;DHT22;18955;51.224;8.482;2022-12-18T10:42:42;4.00;53.50
32506;DHT22;18955;51.224;8.482;2022-12-18T10:45:17;3.80;54.10
32506;DHT22;18955;51.224;8.482;2022-12-18T10:47:49;4.00;53.90
32506;DHT22;18955;51.224;8.482;2022-12-18T10:52:55;3.80;54.10
32506;DHT22;18955;51.224;8.482;2022-12-18T10:55:26;4.10;53.80
32506;DHT22;18955;51.224;8.482;2022-12-18T10:57:53;4.00;53.90
32506;DHT22;18955;51.224;8.482;2022-12-18T11:00:23;3.90;54.40
32506;DHT22;18955;51.224;8.482;2022-12-18T11:02:51;4.10;53.70
32506;DHT22;18955;51.224;8.482;2022-12-18T11:07:53;4.00;54.30
32506;DHT22;18955;51.224;8.482;2022-12-18T11:10:26;4.20;53.50
32506;DHT22;18955;51.224;8.482;2022-12-18T11:12:54;4.00;54.00
32506;DHT22;18955;51.224;8.482;2022-12-18T11:15:26;4.10;54.10
32506;DHT22;18955;51.224;8.482;2022-12-18T11:17:53;4.20;53.30
32506;DHT22;18955;51.224;8.482;2022-12-18T11:20:35;4.00;54.00
32506;DHT22;18955;51.224;8.482;2022-12-18T11:23:05;4.10;53.80
32506;DHT22;18955;51.224;8.482;2022-12-18T11:25:36;4.30;53.20
32506;DHT22;18955;51.224;8.482;2022-12-18T11:31:27;4.20;53.80
32506;DHT22;18955;51.224;8.482;2022-12-18T11:34:14;4.30;53.30
32506;DHT22;18955;51.224;8.482;2022-12-18T11:36:46;4.10;54.00
32506;DHT22;18955;51.224;8.482;2022-12-18T11:39:37;4.40;53.30
32506;DHT22;18955;51.224;8.482;2022-12-18T11:44:58;4.20;54.00
32506;DHT22;18955;51.224;8.482;2022-12-18T11:50:47;4.10;54.00
32506;DHT22;18955;51.224;8.482;2022-12-18T11:53:15;4.40;53.50
32506;DHT22;18955;51.224;8.482;2022-12-18T11:58:46;4.20;54.30
32506;DHT22;18955;51.224;8.482;2022-12-18T12:01:31;4.50;53.40
32506;DHT22;18955;51.224;8.482;2022-12-18T12:11:32;4.20;53.90
32506;DHT22;18955;51.224;8.482;2022-12-18T12:31:12;4.60;52.90
32506;DHT22;18955;51.224;8.482;2022-12-18T12:38:55;4.60;52.90
32506;DHT22;18955;51.224;8.482;2022-12-18T12:41:30;4.40;53.60
32506;DHT22;18955;51.224;8.482;2022-12-18T12:44:44;4.50;53.50
32506;DHT22;18955;51.224;8.482;2022-12-18T12:47:21;4.50;53.10
32506;DHT22;18955;51.224;8.482;2022-12-18T12:49:49;4.30;53.50
32506;DHT22;18955;51.224;8.482;2022-12-18T12:52:46;4.70;53.00
32506;DHT22;18955;51.224;8.482;2022-12-18T12:55:20;4.50;53.70
32506;DHT22;18955;51.224;8.482;2022-12-18T12:58:10;4.40;53.50
32506;DHT22;18955;51.224;8.482;2022-12-18T13:09:00;4.70;52.70
32506;DHT22;18955;51.224;8.482;2022-12-18T13:11:39;4.40;53.30
32506;DHT22;18955;51.224;8.482;2022-12-18T13:17:30;4.60;52.90
32506;DHT22;18955;51.224;8.482;2022-12-18T13:20:12;4.50;53.30
32506;DHT22;18955;51.224;8.482;2022-12-18T13:25:32;4.60;53.00
32506;DHT22;18955;51.224;8.482;2022-12-18T13:28:10;4.50;53.30
32506;DHT22;18955;51.224;8.482;2022-12-18T13:30:52;4.70;52.60
32506;DHT22;18955;51.224;8.482;2022-12-18T13:43:48;4.70;53.20
32506;DHT22;18955;51.224;8.482;2022-12-18T13:46:28;4.70;53.00
32506;DHT22;18955;51.224;8.482;2022-12-18T13:51:35;4.80;53.00
32506;DHT22;18955;51.224;8.482;2022-12-18T13:54:28;4.70;53.10
32506;DHT22;18955;51.224;8.482;2022-12-18T13:56:56;4.50;53.70
32506;DHT22;18955;51.224;8.482;2022-12-18T13:59:25;4.80;52.70
32506;DHT22;18955;51.224;8.482;2022-12-18T14:06:50;4.80;52.80
32506;DHT22;18955;51.224;8.482;2022-12-18T14:09:28;4.70;53.10
32506;DHT22;18955;51.224;8.482;2022-12-18T14:11:56;4.60;53.60
32506;DHT22;18955;51.224;8.482;2022-12-18T14:14:47;4.80;52.80
32506;DHT22;18955;51.224;8.482;2022-12-18T14:17:15;4.60;53.30
32506;DHT22;18955;51.224;8.482;2022-12-18T14:19:46;4.60;53.60
32506;DHT22;18955;51.224;8.482;2022-12-18T14:22:25;4.80;52.80
32506;DHT22;18955;51.224;8.482;2022-12-18T14:25:14;4.60;53.90
32506;DHT22;18955;51.224;8.482;2022-12-18T14:27:44;4.70;53.50
32506;DHT22;18955;51.224;8.482;2022-12-18T14:30:31;4.80;53.00
32506;DHT22;18955;51.224;8.482;2022-12-18T14:33:18;4.50;53.50
32506;DHT22;18955;51.224;8.482;2022-12-18T14:40:56;4.50;53.70
32506;DHT22;18955;51.224;8.482;2022-12-18T14:43:41;4.80;53.20
32506;DHT22;18955;51.224;8.482;2022-12-18T14:51:53;4.90;53.00
32506;DHT22;18955;51.224;8.482;2022-12-18T14:54:21;4.70;53.30
32506;DHT22;18955;51.224;8.482;2022-12-18T14:56:51;4.60;53.80
32506;DHT22;18955;51.224;8.482;2022-12-18T14:59:19;4.90;53.10
32506;DHT22;18955;51.224;8.482;2022-12-18T15:04:39;4.60;53.80
32506;DHT22;18955;51.224;8.482;2022-12-18T15:10:28;4.70;53.70
32506;DHT22;18955;51.224;8.482;2022-12-18T15:18:01;4.60;53.70
32506;DHT22;18955;51.224;8.482;2022-12-18T15:20:31;4.80;53.50
32506;DHT22;18955;51.224;8.482;2022-12-18T15:22:57;4.80;53.20
32506;DHT22;18955;51.224;8.482;2022-12-18T15:25:32;4.60;53.70
32506;DHT22;18955;51.224;8.482;2022-12-18T15:28:00;4.80;53.50
32506;DHT22;18955;51.224;8.482;2022-12-18T15:30:26;4.80;53.30
32506;DHT22;18955;51.224;8.482;2022-12-18T15:32:55;4.60;53.80
32506;DHT22;18955;51.224;8.482;2022-12-18T15:35:39;4.80;53.60
32506;DHT22;18955;51.224;8.482;2022-12-18T15:38:07;4.80;53.30
32506;DHT22;18955;51.224;8.482;2022-12-18T15:40:33;4.60;53.90
32506;DHT22;18955;51.224;8.482;2022-12-18T15:42:59;4.80;53.60
32506;DHT22;18955;51.224;8.482;2022-12-18T15:45:44;4.80;53.60
32506;DHT22;18955;51.224;8.482;2022-12-18T15:48:22;4.60;54.20
32506;DHT22;18955;51.224;8.482;2022-12-18T15:50:50;4.90;53.60
32506;DHT22;18955;51.224;8.482;2022-12-18T15:53:17;4.80;53.60
32506;DHT22;18955;51.224;8.482;2022-12-18T15:55:44;4.60;54.10
32506;DHT22;18955;51.224;8.482;2022-12-18T15:58:28;4.80;53.60
32506;DHT22;18955;51.224;8.482;2022-12-18T16:00:56;4.80;53.70
32506;DHT22;18955;51.224;8.482;2022-12-18T16:03:24;4.70;54.80
32506;DHT22;18955;51.224;8.482;2022-12-18T16:05:50;5.00;53.60
32506;DHT22;18955;51.224;8.482;2022-12-18T16:08:16;4.80;53.60
32506;DHT22;18955;51.224;8.482;2022-12-18T16:10:42;4.60;54.20
32506;DHT22;18955;51.224;8.482;2022-12-18T16:13:13;4.90;53.70
32506;DHT22;18955;51.224;8.482;2022-12-18T16:15:41;4.80;53.70
32506;DHT22;18955;51.224;8.482;2022-12-18T16:18:07;4.60;54.20
32506;DHT22;18955;51.224;8.482;2022-12-18T16:20:34;4.80;53.70
32506;DHT22;18955;51.224;8.482;2022-12-18T16:23:00;4.80;53.60
32506;DHT22;18955;51.224;8.482;2022-12-18T16:25:28;4.60;54.20
32506;DHT22;18955;51.224;8.482;2022-12-18T16:27:55;4.90;53.70
32506;DHT22;18955;51.224;8.482;2022-12-18T16:30:24;4.80;53.60
32506;DHT22;18955;51.224;8.482;2022-12-18T16:32:54;4.60;54.20
32506;DHT22;18955;51.224;8.482;2022-12-18T16:35:21;4.90;53.90
32506;DHT22;18955;51.224;8.482;2022-12-18T16:37:47;4.80;53.70
32506;DHT22;18955;51.224;8.482;2022-12-18T16:40:16;4.60;54.30
32506;DHT22;18955;51.224;8.482;2022-12-18T16:42:44;4.80;53.90
32506;DHT22;18955;51.224;8.482;2022-12-18T16:45:14;4.80;53.90
32506;DHT22;18955;51.224;8.482;2022-12-18T16:47:40;4.60;54.40
32506;DHT22;18955;51.224;8.482;2022-12-18T16:50:07;4.90;53.80
32506;DHT22;18955;51.224;8.482;2022-12-18T16:52:34;4.80;53.80
32506;DHT22;18955;51.224;8.482;2022-12-18T16:55:01;4.60;54.30
32506;DHT22;18955;51.224;8.482;2022-12-18T16:57:27;4.90;53.80
32506;DHT22;18955;51.224;8.482;2022-12-18T16:59:53;4.80;53.70
32506;DHT22;18955;51.224;8.482;2022-12-18T17:02:22;4.60;54.20
32506;DHT22;18955;51.224;8.482;2022-12-18T17:04:48;4.90;53.70
32506;DHT22;18955;51.224;8.482;2022-12-18T17:07:15;4.80;53.60
32506;DHT22;18955;51.224;8.482;2022-12-18T17:09:41;4.60;54.20
32506;DHT22;18955;51.224;8.482;2022-12-18T17:12:08;4.80;54.40
32506;DHT22;18955;51.224;8.482;2022-12-18T17:14:35;4.70;53.80
32506;DHT22;18955;51.224;8.482;2022-12-18T17:17:02;4.60;54.30
32506;DHT22;18955;51.224;8.482;2022-12-18T17:19:28;4.80;53.80
32506;DHT22;18955;51.224;8.482;2022-12-18T17:21:55;4.80;53.80
32506;DHT22;18955;51.224;8.482;2022-12-18T17:24:22;4.60;54.40
32506;DHT22;18955;51.224;8.482;2022-12-18T17:26:48;4.90;53.80
32506;DHT22;18955;51.224;8.482;2022-12-18T17:29:19;4.80;53.90
32506;DHT22;18955;51.224;8.482;2022-12-18T17:31:46;4.60;54.50
32506;DHT22;18955;51.224;8.482;2022-12-18T17:34:13;4.90;53.90
32506;DHT22;18955;51.224;8.482;2022-12-18T17:36:40;4.80;54.00
32506;DHT22;18955;51.224;8.482;2022-12-18T17:39:06;4.60;54.50
32506;DHT22;18955;51.224;8.482;2022-12-18T17:41:33;4.90;53.90
32506;DHT22;18955;51.224;8.482;2022-12-18T17:44:04;4.80;54.00
32506;DHT22;18955;51.224;8.482;2022-12-18T17:46:32;4.60;54.70
32506;DHT22;18955;51.224;8.482;2022-12-18T17:49:00;4.80;54.10
32506;DHT22;18955;51.224;8.482;2022-12-18T17:51:27;4.70;54.20
32506;DHT22;18955;51.224;8.482;2022-12-18T17:53:54;4.60;54.80
32506;DHT22;18955;51.224;8.482;2022-12-18T17:56:22;4.90;54.10
32506;DHT22;18955;51.224;8.482;2022-12-18T17:58:49;4.80;54.60
32506;DHT22;18955;51.224;8.482;2022-12-18T18:01:21;4.60;54.70
32506;DHT22;18955;51.224;8.482;2022-12-18T18:03:48;4.90;54.20
32506;DHT22;18955;51.224;8.482;2022-12-18T18:06:15;4.80;54.30
32506;DHT22;18955;51.224;8.482;2022-12-18T18:08:41;4.60;54.80
32506;DHT22;18955;51.224;8.482;2022-12-18T18:11:12;4.90;54.10
32506;DHT22;18955;51.224;8.482;2022-12-18T18:13:58;4.70;54.30
32506;DHT22;18955;51.224;8.482;2022-12-18T18:19:03;4.80;53.90
32506;DHT22;18955;51.224;8.482;2022-12-18T18:21:29;4.70;54.40
32506;DHT22;18955;51.224;8.482;2022-12-18T18:24:01;4.60;54.70
32506;DHT22;18955;51.224;8.482;2022-12-18T18:26:30;4.80;54.00
32506;DHT22;18955;51.224;8.482;2022-12-18T18:28:58;4.70;54.50
32506;DHT22;18955;51.224;8.482;2022-12-18T18:31:25;4.70;54.70